METAR Data
IDs: Format: Raw Decoded Include TAF

Data at: 2107 UTC 25 Oct 2021

VTBD 252100Z 03002KT 9999 FEW030 26/23 Q1010 NOSIG